Riverside, CA (92509)

4:38 PM PST on January 24, 2017 (GMT -0800)
Indian Hills | | Change Station
Active Advisory: Frost Advisory

Elev 1070 ft 33.99 °N, 117.45 °W | Updated 1 minute ago

Mostly Cloudy
Mostly Cloudy
50.3 °F
Feels Like 50.3 °F
N
0.0
Wind Variable Wind from NW
Gusts 9.0 mph

Today
High -- | Low -- °F
--% Chance of Precip.
Yesterday
High -- | Low -- °F
Precip. -- in
Pressure 29.99 in
Visibility 10.0 miles
Clouds Mostly Cloudy 4100 ft
Dew Point 39 °F
Humidity 65%
Rainfall 0.07 in
Snow Depth Not available.
6:51 AM 5:12 PM
Waning Crescent, 9% visible
METAR KRAL 242353Z 28006KT 10SM BKN041 12/03 A3001 RMK AO2 SLP156 T01170033 10128 20083 53004
Pressure 29.99 in
Visibility 10.0 miles
Clouds Mostly Cloudy 4100 ft
Dew Point 39 °F
Humidity 65%
Rainfall 0.07 in
Snow Depth Not available.
6:51 AM 5:12 PM
Waning Crescent, 9% visible
METAR KRAL 242353Z 28006KT 10SM BKN041 12/03 A3001 RMK AO2 SLP156 T01170033 10128 20083 53004

Get Your Daily Forecast Email!

Thanks for signing up!

Be on the lookout for a verification email in your inbox.

You'll start receiving the daily forecast at 8 AM.

×

10-Day Weather Forecast

Almanac

Astronomy

Jan. 24, 2017 Rise Set
Actual Time
Civil Twilight
Nautical Twilight
Astronomical Twilight
Moon
Length of Visible Light
Length of Day
Tomorrow will be .
, % of the Moon is Illuminated

Today's Extremes

State Highs State Lows

Community

WunderPhotos

Upload Photos

1,962,540 photos uploaded!

WunderBlog® & News

Nearby

Air Quality

  Air Quality AQ Index Pollutant
Not available.

Snow Depth

Station Depth Elevation

Earthquake Activity

City Distance Mag. Time & Date
Minimum magnitude displayed is 2.5.

Coastal Water Temperatures

Place Temperature

Stations

Nearby Weather Stations

Station Location Temp. Windchill Dew Point Humidity Wind Precip. Elev Updated Type
                   

Watches & Warnings

Frost Advisory
Issued: 1:35 PM PST Jan. 24, 2017 – National Weather Service

... Frost advisory remains in effect from 9 PM this evening to
8 am PST Wednesday...

* location... inland Empire and the inland valleys of San Diego
County.

* Temperature... low temperatures in the lower to mid 30s with a
few locales even dropping to around the freezing
mark... especially over southern sections of the inland Empire
including Temecula.

* Impacts... sensitive outdoor plants may be killed if left
uncovered.

Precautionary/preparedness actions...

A frost advisory means that widespread frost is expected.
Sensitive outdoor plants may be killed if left uncovered.


Gregoria